createdAt,value
2022-12-05T00:01:26.354Z,8.85
2022-12-05T00:03:55.743Z,8.10
2022-12-05T00:06:24.337Z,9.50
2022-12-05T00:08:51.804Z,7.78
2022-12-05T00:11:21.067Z,8.25
2022-12-05T00:13:48.656Z,8.32
2022-12-05T00:16:18.832Z,8.68
2022-12-05T00:18:46.515Z,7.97
2022-12-05T00:21:33.283Z,8.15
2022-12-05T00:24:01.111Z,8.43
2022-12-05T00:26:28.766Z,8.30
2022-12-05T00:28:56.569Z,7.50
2022-12-05T00:31:25.483Z,9.20
2022-12-05T00:33:53.289Z,8.70
2022-12-05T00:36:29.425Z,7.65
2022-12-05T00:38:58.610Z,8.55
2022-12-05T00:41:27.477Z,7.75
2022-12-05T00:43:56.041Z,8.60
2022-12-05T00:46:24.619Z,9.00
2022-12-05T00:48:53.786Z,8.80
2022-12-05T00:51:23.829Z,8.48
2022-12-05T00:53:50.874Z,8.65
2022-12-05T00:56:23.334Z,8.02
2022-12-05T00:58:52.611Z,8.40
2022-12-05T01:01:29.813Z,8.50
2022-12-05T01:03:58.574Z,8.48
2022-12-05T01:06:27.660Z,8.77
2022-12-05T01:08:55.951Z,8.73
2022-12-05T01:11:24.396Z,8.90
2022-12-05T01:13:51.871Z,8.38
2022-12-05T01:16:22.242Z,9.57
2022-12-05T01:18:49.347Z,7.63
2022-12-05T01:21:16.471Z,8.70
2022-12-05T01:23:43.700Z,8.65
2022-12-05T01:26:13.799Z,9.25
2022-12-05T01:28:42.440Z,9.05
2022-12-05T01:31:25.663Z,9.93
2022-12-05T01:33:54.348Z,9.70
2022-12-05T01:36:22.358Z,9.20
2022-12-05T01:38:49.400Z,10.38
2022-12-05T01:41:25.596Z,8.95
2022-12-05T01:44:06.312Z,9.85
2022-12-05T01:46:35.976Z,8.93
2022-12-05T01:49:13.381Z,8.00
2022-12-05T01:51:46.203Z,8.75
2022-12-05T01:54:15.036Z,8.80
2022-12-05T01:56:46.125Z,9.40
2022-12-05T01:59:14.148Z,7.55
2022-12-05T02:01:41.641Z,8.30
2022-12-05T02:04:10.060Z,8.70
2022-12-05T02:06:37.300Z,8.70
2022-12-05T02:09:04.164Z,8.95
2022-12-05T02:11:33.545Z,7.50
2022-12-05T02:14:34.275Z,8.05
2022-12-05T02:17:26.854Z,6.78
2022-12-05T02:20:18.719Z,7.97
2022-12-05T02:23:06.557Z,7.30
2022-12-05T02:26:05.710Z,7.55
2022-12-05T02:28:53.294Z,7.18
2022-12-05T02:31:30.465Z,6.85
2022-12-05T02:34:10.626Z,7.03
2022-12-05T02:36:45.187Z,7.75
2022-12-05T02:39:15.415Z,6.93
2022-12-05T02:41:53.143Z,6.80
2022-12-05T02:44:33.544Z,7.28
2022-12-05T02:47:01.151Z,7.25
2022-12-05T02:49:32.031Z,7.18
2022-12-05T02:52:01.787Z,6.50
2022-12-05T02:54:35.332Z,7.57
2022-12-05T02:57:02.802Z,5.88
2022-12-05T02:59:29.708Z,6.47
2022-12-05T03:01:57.055Z,7.15
2022-12-05T03:04:26.471Z,6.63
2022-12-05T03:07:12.302Z,7.07
2022-12-05T03:09:51.401Z,7.03
2022-12-05T03:12:23.186Z,7.10
2022-12-05T03:15:14.918Z,6.75
2022-12-05T03:18:11.321Z,6.65
2022-12-05T03:20:48.418Z,6.20
2022-12-05T03:23:30.817Z,6.63
2022-12-05T03:26:14.387Z,6.70
2022-12-05T03:28:58.021Z,5.95
2022-12-05T03:31:44.681Z,6.50
2022-12-05T03:34:20.973Z,6.40
2022-12-05T03:36:52.736Z,5.78
2022-12-05T03:39:27.701Z,6.35
2022-12-05T03:42:09.284Z,6.20
2022-12-05T03:44:54.417Z,6.88
2022-12-05T03:47:33.128Z,6.82
2022-12-05T03:50:07.684Z,6.43
2022-12-05T03:53:11.443Z,7.20
2022-12-05T03:55:33.660Z,6.22
2022-12-05T03:58:06.024Z,7.25
2022-12-05T04:00:37.737Z,6.53
2022-12-05T04:03:11.931Z,6.15
2022-12-05T04:05:44.491Z,6.65
2022-12-05T04:08:24.049Z,6.75
2022-12-05T04:10:53.579Z,7.30
2022-12-05T04:13:22.663Z,7.22
2022-12-05T04:16:22.080Z,6.68
2022-12-05T04:19:00.341Z,6.40
2022-12-05T04:21:40.916Z,6.28
2022-12-05T04:24:31.433Z,6.45
2022-12-05T04:27:30.196Z,7.05
2022-12-05T04:30:10.988Z,5.85
2022-12-05T04:32:45.044Z,6.22
2022-12-05T04:35:20.580Z,5.57
2022-12-05T04:37:51.624Z,6.43
2022-12-05T04:40:27.481Z,6.18
2022-12-05T04:42:56.583Z,5.38
2022-12-05T04:45:25.906Z,6.07
2022-12-05T04:47:57.295Z,6.10
2022-12-05T04:50:26.282Z,5.22
2022-12-05T04:52:57.592Z,5.95
2022-12-05T04:55:26.250Z,5.90
2022-12-05T04:58:03.340Z,5.90
2022-12-05T05:00:34.048Z,5.43
2022-12-05T05:03:39.683Z,6.30
2022-12-05T05:06:07.464Z,5.50
2022-12-05T05:08:34.243Z,5.78
2022-12-05T05:11:23.611Z,6.72
2022-12-05T05:13:50.869Z,5.80
2022-12-05T05:16:38.645Z,6.28
2022-12-05T05:19:07.143Z,6.57
2022-12-05T05:21:39.166Z,6.40
2022-12-05T05:24:09.417Z,6.70
2022-12-05T05:26:41.260Z,6.30
2022-12-05T05:29:09.638Z,5.22
2022-12-05T05:31:37.938Z,5.63
2022-12-05T05:34:09.363Z,5.22
2022-12-05T05:36:36.800Z,6.18
2022-12-05T05:39:05.384Z,5.75
2022-12-05T05:41:34.815Z,5.45
2022-12-05T05:44:02.156Z,6.32
2022-12-05T05:46:31.054Z,5.97
2022-12-05T05:48:58.206Z,6.78
2022-12-05T05:51:29.436Z,6.47
2022-12-05T05:53:57.292Z,5.63
2022-12-05T05:56:24.152Z,6.65
2022-12-05T05:59:01.969Z,5.35
2022-12-05T06:01:29.969Z,6.70
2022-12-05T06:03:57.805Z,6.00
2022-12-05T06:06:25.171Z,6.65
2022-12-05T06:08:51.990Z,5.65
2022-12-05T06:11:25.868Z,6.00
2022-12-05T06:13:55.789Z,6.03
2022-12-05T06:16:22.952Z,5.35
2022-12-05T06:18:50.126Z,6.10
2022-12-05T06:21:17.746Z,5.90
2022-12-05T06:23:45.308Z,5.70
2022-12-05T06:26:14.482Z,5.72
2022-12-05T06:28:41.556Z,6.50
2022-12-05T06:31:10.673Z,6.00
2022-12-05T06:33:37.994Z,6.18
2022-12-05T06:36:07.490Z,6.10
2022-12-05T06:38:36.901Z,5.78
2022-12-05T06:41:09.088Z,6.10
2022-12-05T06:43:35.963Z,6.75
2022-12-05T06:46:07.702Z,6.38
2022-12-05T06:48:34.932Z,6.55
2022-12-05T06:51:01.990Z,6.65
2022-12-05T06:53:29.302Z,6.60
2022-12-05T06:56:02.162Z,6.10
2022-12-05T06:58:29.552Z,7.03
2022-12-05T07:01:14.979Z,6.55
2022-12-05T07:03:44.070Z,6.38
2022-12-05T07:06:11.400Z,5.60
2022-12-05T07:08:38.604Z,7.50
2022-12-05T07:11:05.559Z,7.18
2022-12-05T07:13:32.713Z,6.88
2022-12-05T07:15:59.806Z,6.93
2022-12-05T07:18:27.303Z,7.30
2022-12-05T07:21:14.886Z,7.60
2022-12-05T07:23:43.806Z,6.07
2022-12-05T07:26:14.156Z,6.65
2022-12-05T07:28:41.032Z,6.40
2022-12-05T07:31:11.062Z,7.53
2022-12-05T07:33:38.558Z,6.70
2022-12-05T07:36:12.002Z,7.57
2022-12-05T07:38:39.641Z,6.25
2022-12-05T07:41:15.697Z,7.53
2022-12-05T07:43:42.568Z,7.07
2022-12-05T07:46:13.585Z,6.90
2022-12-05T07:48:40.911Z,6.50
2022-12-05T07:51:09.570Z,6.35
2022-12-05T07:53:37.632Z,7.85
2022-12-05T07:56:06.794Z,7.28
2022-12-05T07:58:34.566Z,7.88
2022-12-05T08:01:19.342Z,6.85
2022-12-05T08:03:47.021Z,7.95
2022-12-05T08:06:19.242Z,7.20
2022-12-05T08:08:49.946Z,7.15
2022-12-05T08:11:19.678Z,7.43
2022-12-05T08:13:46.754Z,6.82
2022-12-05T08:16:17.037Z,6.13
2022-12-05T08:18:44.546Z,7.63
2022-12-05T08:21:18.007Z,7.38
2022-12-05T08:23:45.787Z,6.78
2022-12-05T08:26:15.314Z,6.95
2022-12-05T08:28:43.600Z,6.90
2022-12-05T08:31:16.646Z,7.03
2022-12-05T08:33:43.952Z,7.50
2022-12-05T08:36:13.402Z,5.95
2022-12-05T08:38:40.254Z,6.78
2022-12-05T08:41:17.700Z,6.43
2022-12-05T08:43:45.108Z,6.88
2022-12-05T08:46:12.225Z,7.50
2022-12-05T08:48:39.630Z,6.63
2022-12-05T08:51:11.401Z,6.43
2022-12-05T08:53:44.079Z,6.82
2022-12-05T08:56:12.192Z,6.75
2022-12-05T08:58:39.290Z,7.50
2022-12-05T09:01:13.600Z,6.07
2022-12-05T09:03:47.352Z,6.70
2022-12-05T09:06:25.133Z,7.75
2022-12-05T09:08:57.285Z,6.40
2022-12-05T09:11:26.902Z,8.30
2022-12-05T09:13:55.857Z,7.15
2022-12-05T09:16:24.904Z,7.63
2022-12-05T09:18:52.344Z,7.88
2022-12-05T09:21:22.025Z,6.35
2022-12-05T09:23:49.519Z,8.23
2022-12-05T09:26:21.517Z,6.53
2022-12-05T09:28:48.370Z,7.50
2022-12-05T09:31:21.170Z,8.00
2022-12-05T09:33:49.679Z,7.30
2022-12-05T09:36:19.727Z,8.52
2022-12-05T09:38:47.325Z,8.65
2022-12-05T09:41:43.225Z,7.25
2022-12-05T09:44:27.846Z,8.52
2022-12-05T09:47:01.542Z,7.82
2022-12-05T09:49:30.680Z,8.75
2022-12-05T09:52:00.100Z,7.80
2022-12-05T09:54:28.330Z,7.95
2022-12-05T09:56:55.354Z,7.75
2022-12-05T09:59:22.241Z,9.05
2022-12-05T10:01:52.147Z,8.20
2022-12-05T10:04:18.980Z,7.35
2022-12-05T10:07:08.897Z,8.18
2022-12-05T10:09:59.779Z,8.57
2022-12-05T10:12:41.477Z,8.10
2022-12-05T10:15:29.582Z,8.70
2022-12-05T10:18:13.737Z,8.13
2022-12-05T10:21:05.662Z,7.85
2022-12-05T10:23:57.659Z,9.23
2022-12-05T10:26:38.430Z,8.93
2022-12-05T10:29:08.393Z,8.75
2022-12-05T10:31:38.276Z,7.53
2022-12-05T10:34:14.381Z,8.50
2022-12-05T10:36:53.382Z,8.27
2022-12-05T10:39:20.273Z,9.80
2022-12-05T10:41:47.131Z,9.60
2022-12-05T10:44:14.099Z,9.00
2022-12-05T10:46:40.989Z,9.23
2022-12-05T10:49:17.653Z,9.43
2022-12-05T10:51:45.045Z,9.38
2022-12-05T10:54:20.341Z,7.90
2022-12-05T10:56:52.762Z,9.15
2022-12-05T10:59:26.313Z,8.43
2022-12-05T11:01:59.840Z,9.30
2022-12-05T11:04:27.640Z,8.57
2022-12-05T11:07:04.647Z,9.50
2022-12-05T11:09:37.499Z,9.52
2022-12-05T11:12:27.212Z,9.32
2022-12-05T11:15:28.067Z,9.35
2022-12-05T11:17:57.256Z,10.25
2022-12-05T11:20:24.093Z,8.80
2022-12-05T11:22:53.667Z,9.40
2022-12-05T11:25:25.711Z,10.27
2022-12-05T11:27:54.930Z,9.13
2022-12-05T11:30:28.118Z,9.02
2022-12-05T11:33:21.286Z,10.98
2022-12-05T11:35:49.346Z,9.82
2022-12-05T11:38:18.412Z,11.02
2022-12-05T11:40:51.135Z,9.55
2022-12-05T11:43:39.663Z,9.85
2022-12-05T11:46:33.971Z,10.90
2022-12-05T11:49:34.511Z,9.43
2022-12-05T11:52:29.302Z,9.43
2022-12-05T11:55:16.286Z,9.88
2022-12-05T11:58:04.628Z,10.38
2022-12-05T12:00:47.155Z,9.70
2022-12-05T12:03:33.281Z,8.85
2022-12-05T12:06:06.626Z,9.50
2022-12-05T12:08:45.944Z,9.38
2022-12-05T12:11:24.669Z,10.18
2022-12-05T12:14:17.837Z,10.13
2022-12-05T12:16:59.361Z,10.52
2022-12-05T12:19:39.266Z,10.43
2022-12-05T12:22:48.499Z,9.25
2022-12-05T12:25:33.711Z,10.88
2022-12-05T12:28:04.521Z,10.10
2022-12-05T12:30:48.807Z,10.90
2022-12-05T12:33:27.225Z,9.13
2022-12-05T12:36:05.709Z,10.10
2022-12-05T12:38:52.330Z,10.50
2022-12-05T12:41:46.330Z,11.13
2022-12-05T12:44:32.039Z,10.85
2022-12-05T12:47:04.345Z,11.45
2022-12-05T12:49:36.151Z,11.65
2022-12-05T12:52:12.447Z,11.02
2022-12-05T12:55:04.291Z,11.05
2022-12-05T12:58:21.634Z,11.48
2022-12-05T13:01:25.413Z,11.35
2022-12-05T13:04:02.679Z,12.25
2022-12-05T13:06:40.188Z,12.00
2022-12-05T13:09:12.627Z,11.60
2022-12-05T13:11:44.486Z,10.75
2022-12-05T13:14:16.448Z,11.20
2022-12-05T13:16:49.149Z,11.50
2022-12-05T13:19:37.936Z,11.95
2022-12-05T13:22:07.392Z,12.68
2022-12-05T13:24:34.725Z,12.93
2022-12-05T13:27:10.209Z,10.95
2022-12-05T13:29:48.181Z,12.07
2022-12-05T13:32:36.379Z,11.65
2022-12-05T13:35:59.711Z,12.18
2022-12-05T13:38:59.664Z,11.30
2022-12-05T13:42:05.794Z,10.85
2022-12-05T13:45:01.204Z,9.38
2022-12-05T13:48:01.608Z,11.25
2022-12-05T13:51:01.425Z,11.45
2022-12-05T13:53:47.708Z,9.65
2022-12-05T13:56:14.535Z,10.02
2022-12-05T13:58:46.962Z,10.63
2022-12-05T14:01:33.956Z,9.35
2022-12-05T14:04:04.995Z,11.25
2022-12-05T14:06:40.693Z,11.50
2022-12-05T14:09:20.174Z,11.65
2022-12-05T14:12:12.277Z,12.52
2022-12-05T14:14:57.271Z,12.35
2022-12-05T14:17:27.818Z,10.00
2022-12-05T14:20:25.482Z,10.93
2022-12-05T14:23:10.886Z,10.57
2022-12-05T14:26:18.113Z,9.75
2022-12-05T14:28:56.811Z,9.93
2022-12-05T14:31:43.874Z,11.70
2022-12-05T14:34:25.040Z,10.50
2022-12-05T14:37:02.345Z,12.68
2022-12-05T14:39:42.441Z,11.80
2022-12-05T14:42:50.427Z,11.95
2022-12-05T14:45:25.858Z,11.80
2022-12-05T14:47:58.160Z,11.80
2022-12-05T14:50:41.465Z,11.52
2022-12-05T14:53:16.865Z,11.45
2022-12-05T14:55:45.948Z,11.48
2022-12-05T14:58:24.078Z,11.70
2022-12-05T15:01:05.628Z,12.73
2022-12-05T15:03:40.420Z,11.05
2022-12-05T15:06:15.472Z,11.10
2022-12-05T15:08:49.329Z,11.70
2022-12-05T15:11:30.464Z,11.85
2022-12-05T15:14:03.086Z,11.13
2022-12-05T15:16:31.666Z,11.50
2022-12-05T15:19:03.800Z,11.07
2022-12-05T15:21:42.281Z,10.95
2022-12-05T15:24:19.809Z,10.88
2022-12-05T15:26:57.757Z,10.80
2022-12-05T15:29:30.420Z,10.40
2022-12-05T15:32:00.111Z,10.65
2022-12-05T15:34:43.691Z,10.30
2022-12-05T15:37:22.324Z,11.10
2022-12-05T15:40:07.352Z,11.38
2022-12-05T15:42:51.591Z,11.23
2022-12-05T15:45:23.388Z,12.20
2022-12-05T15:47:57.341Z,11.27
2022-12-05T15:50:33.164Z,13.05
2022-12-05T15:53:15.515Z,11.18
2022-12-05T15:55:51.340Z,13.13
2022-12-05T15:58:29.308Z,10.88
2022-12-05T16:01:05.287Z,12.52
2022-12-05T16:03:35.084Z,12.77
2022-12-05T16:06:06.603Z,11.27
2022-12-05T16:08:41.866Z,11.18
2022-12-05T16:11:12.430Z,11.60
2022-12-05T16:13:48.182Z,11.88
2022-12-05T16:16:19.209Z,11.73
2022-12-05T16:18:57.786Z,11.88
2022-12-05T16:21:38.561Z,11.55
2022-12-05T16:24:19.868Z,11.85
2022-12-05T16:27:03.461Z,11.95
2022-12-05T16:29:33.103Z,12.02
2022-12-05T16:32:06.997Z,12.75
2022-12-05T16:34:34.658Z,12.27
2022-12-05T16:37:01.606Z,12.60
2022-12-05T16:39:28.836Z,12.10
2022-12-05T16:41:55.889Z,12.35
2022-12-05T16:44:28.797Z,11.98
2022-12-05T16:46:56.722Z,11.65
2022-12-05T16:49:42.628Z,13.48
2022-12-05T16:52:15.095Z,11.75
2022-12-05T16:54:45.942Z,11.50
2022-12-05T16:57:15.160Z,11.10
2022-12-05T16:59:43.627Z,11.35
2022-12-05T17:02:15.491Z,12.63
2022-12-05T17:04:42.571Z,11.73
2022-12-05T17:07:09.798Z,13.15
2022-12-05T17:09:36.786Z,13.85
2022-12-05T17:12:22.884Z,11.93
2022-12-05T17:14:49.937Z,13.63
2022-12-05T17:17:18.306Z,13.10
2022-12-05T17:19:45.246Z,12.10
2022-12-05T17:22:14.452Z,13.32
2022-12-05T17:24:41.441Z,13.90
2022-12-05T17:27:12.389Z,11.20
2022-12-05T17:29:39.232Z,13.55
2022-12-05T17:32:06.322Z,14.02
2022-12-05T17:34:33.108Z,13.10
2022-12-05T17:37:00.277Z,11.75
2022-12-05T17:39:28.802Z,12.40
2022-12-05T17:41:56.043Z,12.68
2022-12-05T17:44:22.889Z,13.10
2022-12-05T17:46:49.765Z,12.88
2022-12-05T17:49:18.022Z,12.40
2022-12-05T17:52:13.534Z,13.20
2022-12-05T17:54:32.380Z,13.10
2022-12-05T17:56:59.183Z,12.40
2022-12-05T17:59:25.998Z,11.73
2022-12-05T18:01:52.761Z,13.00
2022-12-05T18:04:23.135Z,12.60
2022-12-05T18:06:50.791Z,13.27
2022-12-05T18:09:17.618Z,11.82
2022-12-05T18:11:44.626Z,10.75
2022-12-05T18:14:11.567Z,12.60
2022-12-05T18:16:38.451Z,12.38
2022-12-05T18:19:05.351Z,11.30
2022-12-05T18:21:32.115Z,13.02
2022-12-05T18:23:59.801Z,12.82
2022-12-05T18:26:26.732Z,13.30
2022-12-05T18:28:56.429Z,13.60
2022-12-05T18:31:23.916Z,13.00
2022-12-05T18:33:51.454Z,12.98
2022-12-05T18:36:20.621Z,12.80
2022-12-05T18:38:55.389Z,12.38
2022-12-05T18:41:24.013Z,13.85
2022-12-05T18:43:51.266Z,13.63
2022-12-05T18:46:18.161Z,12.77
2022-12-05T18:48:47.702Z,11.60
2022-12-05T18:51:23.491Z,12.75
2022-12-05T18:53:52.864Z,13.70
2022-12-05T18:56:26.625Z,12.55
2022-12-05T18:58:54.504Z,13.32
2022-12-05T19:01:21.564Z,12.10
2022-12-05T19:03:48.442Z,11.75
2022-12-05T19:06:18.386Z,12.40
2022-12-05T19:08:46.243Z,13.35
2022-12-05T19:11:17.785Z,13.43
2022-12-05T19:13:44.680Z,13.18
2022-12-05T19:16:19.226Z,13.27
2022-12-05T19:18:47.275Z,12.70
2022-12-05T19:21:14.232Z,13.35
2022-12-05T19:23:41.620Z,12.50
2022-12-05T19:26:09.547Z,13.13
2022-12-05T19:28:37.505Z,13.88
2022-12-05T19:31:05.650Z,13.40
2022-12-05T19:33:43.596Z,14.40
2022-12-05T19:36:17.370Z,12.88
2022-12-05T19:38:45.703Z,12.82
2022-12-05T19:41:14.722Z,12.02
2022-12-05T19:43:43.325Z,13.23
2022-12-05T19:46:19.608Z,13.55
2022-12-05T19:48:47.536Z,13.00
2022-12-05T19:51:14.725Z,14.27
2022-12-05T19:53:43.903Z,13.13
2022-12-05T19:56:16.813Z,13.10
2022-12-05T19:58:44.506Z,14.40
2022-12-05T20:01:14.424Z,12.93
2022-12-05T20:03:42.213Z,13.57
2022-12-05T20:06:11.529Z,14.00
2022-12-05T20:08:39.051Z,14.15
2022-12-05T20:11:13.133Z,13.88
2022-12-05T20:13:48.793Z,14.35
2022-12-05T20:16:18.942Z,14.50
2022-12-05T20:18:46.277Z,14.10
2022-12-05T20:21:15.203Z,13.60
2022-12-05T20:23:42.652Z,14.32
2022-12-05T20:26:12.430Z,15.10
2022-12-05T20:28:39.984Z,15.00
2022-12-05T20:31:15.577Z,14.77
2022-12-05T20:33:43.224Z,14.88
2022-12-05T20:36:15.758Z,14.32
2022-12-05T20:38:42.944Z,15.32
2022-12-05T20:41:12.210Z,14.32
2022-12-05T20:43:39.124Z,15.02
2022-12-05T20:46:10.212Z,15.23
2022-12-05T20:48:37.463Z,15.70
2022-12-05T20:51:11.380Z,16.15
2022-12-05T20:53:41.044Z,14.82
2022-12-05T20:56:22.730Z,15.20
2022-12-05T20:58:52.091Z,16.30
2022-12-05T21:01:21.102Z,16.40
2022-12-05T21:03:52.322Z,15.20
2022-12-05T21:06:23.650Z,16.45
2022-12-05T21:08:51.418Z,16.33
2022-12-05T21:11:19.020Z,16.48
2022-12-05T21:13:46.160Z,16.58
2022-12-05T21:16:17.022Z,16.90
2022-12-05T21:18:44.826Z,15.35
2022-12-05T21:21:20.175Z,16.02
2022-12-05T21:23:51.985Z,15.27
2022-12-05T21:26:18.889Z,16.58
2022-12-05T21:28:46.250Z,16.35
2022-12-05T21:31:14.967Z,15.32
2022-12-05T21:33:46.078Z,15.70
2022-12-05T21:36:12.907Z,15.55
2022-12-05T21:38:39.812Z,15.35
2022-12-05T21:41:07.344Z,15.75
2022-12-05T21:43:35.111Z,16.65
2022-12-05T21:46:02.252Z,15.10
2022-12-05T21:48:29.073Z,17.00
2022-12-05T21:50:56.439Z,16.88
2022-12-05T21:53:23.619Z,17.77
2022-12-05T21:56:01.078Z,14.00
2022-12-05T21:58:28.404Z,15.77
2022-12-05T22:00:55.351Z,15.95
2022-12-05T22:03:22.380Z,15.25
2022-12-05T22:05:49.640Z,15.30
2022-12-05T22:08:16.787Z,14.60
2022-12-05T22:10:43.716Z,15.00
2022-12-05T22:13:10.553Z,14.95
2022-12-05T22:15:37.527Z,15.52
2022-12-05T22:18:04.460Z,15.98
2022-12-05T22:20:31.545Z,15.85
2022-12-05T22:22:58.354Z,13.95
2022-12-05T22:25:25.163Z,14.43
2022-12-05T22:27:55.267Z,14.45
2022-12-05T22:30:22.106Z,15.25
2022-12-05T22:32:49.036Z,14.23
2022-12-05T22:35:18.848Z,15.38
2022-12-05T22:37:45.652Z,15.50
2022-12-05T22:40:12.668Z,14.35
2022-12-05T22:42:39.559Z,14.57
2022-12-05T22:45:07.560Z,15.10
2022-12-05T22:47:34.392Z,14.93
2022-12-05T22:50:01.605Z,15.95
2022-12-05T22:52:28.866Z,15.48
2022-12-05T22:54:55.681Z,15.32
2022-12-05T22:57:22.547Z,15.05
2022-12-05T22:59:49.300Z,15.23
2022-12-05T23:02:16.101Z,15.38
2022-12-05T23:04:42.945Z,14.85
2022-12-05T23:07:09.800Z,14.02
2022-12-05T23:09:36.603Z,15.35
2022-12-05T23:12:03.496Z,14.65
2022-12-05T23:14:30.316Z,14.25
2022-12-05T23:16:57.124Z,14.88
2022-12-05T23:19:24.020Z,16.20
2022-12-05T23:21:50.872Z,14.48
2022-12-05T23:24:17.710Z,14.15
2022-12-05T23:26:45.681Z,16.52
2022-12-05T23:29:13.958Z,15.10
2022-12-05T23:31:42.434Z,16.08
2022-12-05T23:34:09.946Z,14.98
2022-12-05T23:36:37.212Z,14.90
2022-12-05T23:39:04.356Z,15.30
2022-12-05T23:41:31.348Z,14.43
2022-12-05T23:43:58.461Z,14.88
2022-12-05T23:46:27.733Z,16.25
2022-12-05T23:48:56.008Z,16.00
2022-12-05T23:51:25.587Z,14.95
2022-12-05T23:53:58.267Z,16.48
2022-12-05T23:56:28.522Z,15.05
2022-12-05T23:58:56.311Z,16.58
